Time;durP1;ratioP1;P1;durP2;ratioP2;P2;SDS_P1;SDS_P2;PMS_P1;PMS_P2;Temp;Humidity;BMP_temperature;BMP_pressure;BME280_temperature;BME280_humidity;BME280_pressure;Samples;Min_cycle;Max_cycle;Signal;HPM_P1;HPM_P2
2021/09/06 00:00:32;;;;;;;9.95;3.70;;;18.50;92.20;;;;;;5095858;28;20050;-81
2021/09/06 00:02:58;;;;;;;6.28;4.22;;;18.50;92.20;;;;;;5084724;28;20032;-82
2021/09/06 00:05:24;;;;;;;5.05;3.53;;;18.40;92.20;;;;;;5090582;28;20078;-82
2021/09/06 00:07:49;;;;;;;5.57;3.60;;;18.40;92.40;;;;;;5077087;28;20503;-82
2021/09/06 00:10:21;;;;;;;7.15;3.70;;;18.30;92.40;;;;;;5098637;28;20024;-84
2021/09/06 00:12:47;;;;;;;5.45;3.72;;;18.30;92.40;;;;;;5085848;28;20039;-83
2021/09/06 00:15:13;;;;;;;7.43;4.22;;;18.20;92.40;;;;;;5088929;28;20036;-85
2021/09/06 00:17:38;;;;;;;5.97;3.70;;;18.20;92.30;;;;;;5096973;28;20055;-83
2021/09/06 00:20:05;;;;;;;5.80;3.85;;;18.20;92.30;;;;;;5091867;28;20020;-84
2021/09/06 00:22:31;;;;;;;6.50;3.88;;;18.20;92.30;;;;;;5100640;28;20439;-86
2021/09/06 00:24:57;;;;;;;6.47;3.70;;;18.20;92.30;;;;;;5091107;28;20452;-85
2021/09/06 00:27:23;;;;;;;3.92;3.17;;;18.20;92.30;;;;;;5083320;28;20034;-82
2021/09/06 00:29:48;;;;;;;6.68;3.78;;;18.20;92.50;;;;;;5091881;28;20104;-82
2021/09/06 00:32:14;;;;;;;6.53;4.80;;;18.20;92.50;;;;;;5080652;28;20023;-83
2021/09/06 00:34:39;;;;;;;6.57;3.83;;;18.30;92.50;;;;;;5090665;28;20024;-80
2021/09/06 00:37:05;;;;;;;6.28;3.92;;;18.20;92.60;;;;;;5086988;28;20522;-81
2021/09/06 00:39:31;;;;;;;8.27;4.05;;;18.20;92.80;;;;;;5095743;28;20052;-83
2021/09/06 00:41:56;;;;;;;6.28;4.07;;;18.20;92.80;;;;;;5075952;28;20032;-83
2021/09/06 00:44:22;;;;;;;6.57;4.00;;;18.10;92.80;;;;;;5081454;28;20027;-83
2021/09/06 00:46:48;;;;;;;6.55;4.40;;;18.10;92.90;;;;;;5085593;28;20028;-83
2021/09/06 00:49:20;;;;;;;6.28;4.20;;;18.10;93.00;;;;;;5090725;28;20110;-80
2021/09/06 00:51:47;;;;;;;8.38;4.72;;;18.00;93.00;;;;;;5096917;28;20020;-82
2021/09/06 00:54:14;;;;;;;4.93;3.92;;;18.00;92.90;;;;;;5083993;28;20020;-82
2021/09/06 00:56:41;;;;;;;7.18;4.15;;;18.00;93.00;;;;;;5090684;28;20061;-81
2021/09/06 00:59:06;;;;;;;6.70;4.30;;;17.90;93.10;;;;;;5090586;28;20046;-82
2021/09/06 01:01:32;;;;;;;7.45;4.43;;;18.00;93.10;;;;;;5083393;28;20020;-82
2021/09/06 01:03:57;;;;;;;8.55;3.85;;;18.00;93.00;;;;;;5095218;28;20052;-82
2021/09/06 01:06:23;;;;;;;6.10;4.15;;;18.00;93.10;;;;;;5116324;28;20032;-82
2021/09/06 01:08:49;;;;;;;7.35;4.28;;;18.00;92.90;;;;;;5088579;28;20028;-82
2021/09/06 01:11:15;;;;;;;7.20;3.95;;;18.00;93.00;;;;;;5110144;28;20046;-81
2021/09/06 01:13:40;;;;;;;5.10;3.90;;;17.90;93.00;;;;;;5100176;28;20028;-82
2021/09/06 01:16:06;;;;;;;6.35;4.32;;;17.90;93.10;;;;;;5094526;28;20028;-82
2021/09/06 01:18:32;;;;;;;5.50;4.07;;;17.90;93.10;;;;;;5103850;28;20499;-82
2021/09/06 01:20:58;;;;;;;7.95;5.03;;;17.90;93.10;;;;;;5087376;28;20127;-81
2021/09/06 01:23:24;;;;;;;6.90;4.18;;;17.80;93.20;;;;;;5093412;28;20023;-82
2021/09/06 01:25:50;;;;;;;6.93;3.95;;;17.80;93.20;;;;;;5081682;28;20035;-82
2021/09/06 01:28:16;;;;;;;6.40;3.95;;;17.80;93.30;;;;;;5093588;28;20058;-82
2021/09/06 01:30:42;;;;;;;5.82;3.80;;;17.80;93.30;;;;;;5087432;28;20046;-82
2021/09/06 01:33:08;;;;;;;5.40;4.05;;;17.80;93.30;;;;;;5103988;28;20453;-82
2021/09/06 01:35:33;;;;;;;4.93;3.65;;;17.70;93.30;;;;;;5094007;28;20080;-82
2021/09/06 01:37:59;;;;;;;6.65;4.32;;;17.70;93.30;;;;;;5098066;28;20118;-83
2021/09/06 01:40:25;;;;;;;5.40;3.75;;;17.70;93.30;;;;;;5092375;28;20020;-84
2021/09/06 01:42:51;;;;;;;5.40;3.88;;;17.70;93.30;;;;;;5087848;28;20020;-83
2021/09/06 01:45:17;;;;;;;6.15;3.97;;;17.70;93.20;;;;;;5084871;28;20032;-83
2021/09/06 01:47:43;;;;;;;8.73;3.83;;;17.70;93.20;;;;;;5077875;28;20031;-85
2021/09/06 01:50:09;;;;;;;7.07;4.30;;;17.60;93.20;;;;;;5094221;28;20103;-83
2021/09/06 01:52:35;;;;;;;6.15;4.30;;;17.60;93.20;;;;;;5078121;28;20028;-84
2021/09/06 01:55:01;;;;;;;7.18;4.20;;;17.60;93.10;;;;;;5088804;28;20020;-84
2021/09/06 01:57:26;;;;;;;8.98;4.45;;;17.60;93.10;;;;;;5101276;28;20028;-83
2021/09/06 01:59:52;;;;;;;6.57;4.22;;;17.50;93.20;;;;;;5094072;28;20020;-84
2021/09/06 02:02:18;;;;;;;6.45;4.50;;;17.50;93.20;;;;;;5083364;28;20030;-83
2021/09/06 02:04:43;;;;;;;6.43;3.75;;;17.50;93.30;;;;;;5093989;28;20019;-85
2021/09/06 02:07:09;;;;;;;6.63;4.28;;;17.50;93.20;;;;;;5085667;28;20043;-83
2021/09/06 02:09:35;;;;;;;7.50;4.60;;;17.50;93.30;;;;;;5095796;28;20091;-83
2021/09/06 02:12:00;;;;;;;6.80;4.07;;;17.40;93.40;;;;;;5094009;28;20026;-82
2021/09/06 02:14:26;;;;;;;8.38;4.32;;;17.40;93.50;;;;;;5084079;28;20490;-82
2021/09/06 02:16:51;;;;;;;5.70;3.85;;;17.40;93.50;;;;;;5087380;28;20031;-82
2021/09/06 02:19:17;;;;;;;7.53;4.40;;;17.40;93.50;;;;;;5087260;28;20108;-82
2021/09/06 02:21:43;;;;;;;6.53;4.20;;;17.40;93.60;;;;;;5076600;28;20020;-83
2021/09/06 02:24:08;;;;;;;7.25;4.18;;;17.30;93.60;;;;;;5075348;28;20363;-82
2021/09/06 02:26:36;;;;;;;7.97;4.30;;;17.30;93.60;;;;;;5082815;28;20028;-82
2021/09/06 02:29:03;;;;;;;6.65;4.20;;;17.30;93.60;;;;;;5082169;28;20021;-82
2021/09/06 02:31:29;;;;;;;5.68;4.05;;;17.20;93.70;;;;;;5090471;28;20020;-82
2021/09/06 02:33:55;;;;;;;6.32;4.10;;;17.20;93.70;;;;;;5077915;28;20074;-82
2021/09/06 02:36:21;;;;;;;6.57;4.20;;;17.20;93.80;;;;;;5079906;28;20504;-82
2021/09/06 02:38:46;;;;;;;7.63;4.13;;;17.20;93.80;;;;;;5084308;28;20032;-82
2021/09/06 02:41:13;;;;;;;6.43;4.15;;;17.20;94.00;;;;;;5073713;28;20024;-81
2021/09/06 02:43:38;;;;;;;7.20;4.43;;;17.20;93.80;;;;;;5091558;28;20020;-82
2021/09/06 02:46:04;;;;;;;6.85;4.05;;;17.20;93.80;;;;;;5093488;28;20032;-82
2021/09/06 02:48:29;;;;;;;5.75;4.07;;;17.10;93.80;;;;;;5086745;28;20032;-82
2021/09/06 02:50:55;;;;;;;6.45;4.30;;;17.10;94.20;;;;;;5083865;28;20111;-82
2021/09/06 02:53:20;;;;;;;5.88;3.75;;;17.10;93.90;;;;;;5080658;28;20122;-82
2021/09/06 02:55:46;;;;;;;6.25;4.10;;;17.00;93.90;;;;;;5089671;28;20039;-82
2021/09/06 02:58:12;;;;;;;6.30;4.47;;;17.00;93.90;;;;;;5078979;28;20057;-82
2021/09/06 03:00:37;;;;;;;5.97;3.83;;;17.00;94.00;;;;;;5086734;28;20021;-82
2021/09/06 03:03:03;;;;;;;6.65;4.00;;;17.00;94.10;;;;;;5084544;28;20024;-82
2021/09/06 03:05:29;;;;;;;5.95;4.28;;;17.00;93.90;;;;;;5077938;28;20040;-81
2021/09/06 03:07:54;;;;;;;5.40;4.38;;;17.00;93.90;;;;;;5091919;28;20024;-81
2021/09/06 03:10:20;;;;;;;5.85;4.28;;;17.00;94.00;;;;;;5087643;28;20028;-81
2021/09/06 03:12:45;;;;;;;5.93;4.72;;;16.90;94.00;;;;;;5082817;28;20469;-81
2021/09/06 03:15:11;;;;;;;6.75;3.92;;;16.90;94.40;;;;;;5081499;28;20031;-81
2021/09/06 03:17:37;;;;;;;6.55;4.45;;;16.90;94.10;;;;;;5096215;28;20401;-80
2021/09/06 03:20:03;;;;;;;6.93;4.75;;;16.90;94.10;;;;;;5076031;28;20070;-82
2021/09/06 03:22:28;;;;;;;5.68;4.30;;;16.80;94.10;;;;;;5083309;28;20023;-81
2021/09/06 03:24:54;;;;;;;7.63;4.78;;;16.80;94.30;;;;;;5103375;28;20036;-82
2021/09/06 03:27:20;;;;;;;6.63;4.47;;;16.80;94.40;;;;;;5090539;28;20172;-82
2021/09/06 03:29:45;;;;;;;7.40;4.35;;;16.70;94.30;;;;;;5079128;28;20056;-82
2021/09/06 03:32:12;;;;;;;7.60;4.72;;;16.70;94.40;;;;;;5092001;28;20024;-82
2021/09/06 03:34:38;;;;;;;7.95;4.40;;;16.70;94.40;;;;;;5079574;28;20485;-80
2021/09/06 03:37:04;;;;;;;7.30;4.40;;;16.70;94.40;;;;;;5087385;28;20044;-82
2021/09/06 03:39:29;;;;;;;7.70;4.63;;;16.70;94.30;;;;;;5114310;28;20030;-82
2021/09/06 03:41:55;;;;;;;8.15;4.57;;;16.70;94.30;;;;;;5079005;28;20074;-83
2021/09/06 03:44:21;;;;;;;6.53;4.22;;;16.70;94.30;;;;;;5090261;28;20032;-83
2021/09/06 03:46:46;;;;;;;6.00;4.45;;;16.60;94.40;;;;;;5084704;28;20031;-83
2021/09/06 03:49:12;;;;;;;6.97;4.15;;;16.70;94.50;;;;;;5083309;28;20484;-83
2021/09/06 03:51:38;;;;;;;8.77;4.40;;;16.60;94.50;;;;;;5110530;28;20031;-82
2021/09/06 03:54:03;;;;;;;7.40;4.57;;;16.60;94.50;;;;;;5075482;28;20052;-83
2021/09/06 03:56:29;;;;;;;5.43;4.07;;;16.60;94.50;;;;;;5082977;28;20031;-82
2021/09/06 03:58:55;;;;;;;8.02;4.78;;;16.60;94.60;;;;;;5084890;28;20032;-82
2021/09/06 04:01:21;;;;;;;7.18;4.72;;;16.60;94.50;;;;;;5107972;28;20041;-83
2021/09/06 04:03:46;;;;;;;5.85;4.13;;;16.50;94.60;;;;;;5078772;28;20032;-84
2021/09/06 04:06:12;;;;;;;8.93;5.20;;;16.50;94.60;;;;;;5082814;28;20032;-83
2021/09/06 04:08:37;;;;;;;6.68;4.28;;;16.50;94.80;;;;;;5114126;28;20157;-83
2021/09/06 04:11:03;;;;;;;7.15;4.30;;;16.50;94.80;;;;;;5083379;28;20184;-83
2021/09/06 04:13:28;;;;;;;6.78;4.20;;;16.40;94.80;;;;;;5108900;28;20024;-82
2021/09/06 04:15:54;;;;;;;9.30;4.75;;;16.50;94.80;;;;;;5096110;28;20051;-83
2021/09/06 04:18:20;;;;;;;7.40;4.78;;;16.50;94.80;;;;;;5107833;28;20465;-83
2021/09/06 04:20:45;;;;;;;9.18;4.60;;;16.40;94.80;;;;;;5084321;28;20027;-83
2021/09/06 04:23:12;;;;;;;9.27;4.72;;;16.40;94.90;;;;;;5083228;28;20024;-82
2021/09/06 04:25:37;;;;;;;8.48;4.63;;;16.40;94.90;;;;;;5114262;28;20496;-82
2021/09/06 04:28:03;;;;;;;8.02;5.05;;;16.40;94.90;;;;;;5082769;28;20235;-82
2021/09/06 04:30:29;;;;;;;7.32;5.15;;;16.30;95.00;;;;;;5118016;28;20541;-83
2021/09/06 04:32:55;;;;;;;8.27;4.63;;;16.30;95.00;;;;;;5088560;28;20028;-82
2021/09/06 04:35:20;;;;;;;8.52;4.65;;;16.30;95.10;;;;;;5082551;28;20036;-82
2021/09/06 04:37:46;;;;;;;6.45;4.22;;;16.30;95.10;;;;;;5096584;28;20507;-82
2021/09/06 04:40:12;;;;;;;6.30;4.35;;;16.20;95.10;;;;;;5095080;28;20035;-82
2021/09/06 04:42:37;;;;;;;7.68;4.57;;;16.20;95.20;;;;;;5087329;28;20024;-82
2021/09/06 04:45:04;;;;;;;7.93;5.28;;;16.20;95.30;;;;;;5105192;28;20186;-82
2021/09/06 04:47:29;;;;;;;10.10;5.13;;;16.20;95.30;;;;;;5097279;28;20024;-82
2021/09/06 04:49:55;;;;;;;6.47;4.75;;;16.20;95.20;;;;;;5095563;28;20122;-82
2021/09/06 04:52:20;;;;;;;8.93;4.63;;;16.20;95.30;;;;;;5102781;28;20023;-83
2021/09/06 04:54:46;;;;;;;8.73;4.25;;;16.10;95.20;;;;;;5089314;28;20077;-83
2021/09/06 04:57:12;;;;;;;7.93;4.60;;;16.10;95.20;;;;;;5109924;28;20028;-82
2021/09/06 04:59:37;;;;;;;8.32;4.88;;;16.10;95.30;;;;;;5082500;28;20024;-83
2021/09/06 05:02:03;;;;;;;6.85;4.55;;;16.10;95.30;;;;;;5095078;28;20103;-81
2021/09/06 05:04:28;;;;;;;9.40;4.78;;;16.10;95.30;;;;;;5082150;28;20031;-82
2021/09/06 05:06:55;;;;;;;7.55;4.68;;;16.10;95.30;;;;;;5089020;28;20437;-82
2021/09/06 05:09:21;;;;;;;7.97;5.20;;;16.10;95.40;;;;;;5099412;28;20059;-82
2021/09/06 05:11:46;;;;;;;8.45;4.55;;;16.10;95.30;;;;;;5080524;28;20111;-83
2021/09/06 05:14:12;;;;;;;7.75;5.30;;;16.00;95.30;;;;;;5083177;28;20053;-82
2021/09/06 05:16:37;;;;;;;8.07;4.88;;;16.00;95.30;;;;;;5108551;28;20032;-83
2021/09/06 05:19:03;;;;;;;10.95;5.00;;;16.00;95.40;;;;;;5088427;28;20312;-82
2021/09/06 05:21:29;;;;;;;9.93;5.20;;;16.00;95.40;;;;;;5100183;28;20020;-83
2021/09/06 05:23:54;;;;;;;6.78;5.05;;;16.00;95.40;;;;;;5093505;28;20033;-83
2021/09/06 05:26:20;;;;;;;7.35;4.80;;;16.00;95.30;;;;;;5082973;28;20096;-83
2021/09/06 05:28:45;;;;;;;10.48;4.88;;;16.00;95.30;;;;;;5087594;28;20495;-83
2021/09/06 05:31:13;;;;;;;10.23;4.35;;;16.10;95.40;;;;;;5090276;28;20031;-83
2021/09/06 05:33:39;;;;;;;7.15;5.10;;;16.10;95.30;;;;;;5098686;28;20085;-85
2021/09/06 05:36:06;;;;;;;8.88;4.78;;;16.10;95.20;;;;;;5083081;28;20492;-83
2021/09/06 05:38:32;;;;;;;8.68;5.07;;;16.10;95.30;;;;;;5097382;28;20034;-82
2021/09/06 05:40:58;;;;;;;11.13;5.43;;;16.10;95.20;;;;;;5085758;28;20024;-82
2021/09/06 05:43:23;;;;;;;9.10;4.90;;;16.00;95.20;;;;;;5091542;28;20030;-82
2021/09/06 05:45:49;;;;;;;7.95;4.60;;;16.00;95.20;;;;;;5079925;28;20035;-83
2021/09/06 05:48:14;;;;;;;10.85;4.95;;;16.10;95.30;;;;;;5092190;28;20024;-82
2021/09/06 05:50:40;;;;;;;8.52;4.78;;;16.10;95.20;;;;;;5085423;28;20035;-82
2021/09/06 05:53:06;;;;;;;7.03;4.75;;;16.10;95.20;;;;;;5084667;28;20064;-82
2021/09/06 05:55:32;;;;;;;6.65;4.40;;;16.10;95.20;;;;;;5092601;28;20039;-82
2021/09/06 05:57:58;;;;;;;7.45;5.05;;;16.10;95.20;;;;;;5093856;28;20019;-82
2021/09/06 06:00:23;;;;;;;8.00;5.05;;;16.10;95.30;;;;;;5082432;28;20038;-83
2021/09/06 06:02:49;;;;;;;10.48;5.05;;;16.20;95.30;;;;;;5109899;28;20063;-83
2021/09/06 06:05:15;;;;;;;6.55;4.70;;;16.20;95.20;;;;;;5107913;28;20062;-82
2021/09/06 06:07:40;;;;;;;8.90;4.80;;;16.30;95.20;;;;;;5097906;28;20024;-83
2021/09/06 06:10:06;;;;;;;6.90;5.15;;;16.20;95.30;;;;;;5097560;28;20020;-82
2021/09/06 06:12:32;;;;;;;9.45;5.25;;;16.30;95.30;;;;;;5089547;28;20079;-82
2021/09/06 06:14:58;;;;;;;8.35;5.00;;;16.30;95.20;;;;;;5076163;28;20032;-83
2021/09/06 06:17:25;;;;;;;9.68;5.40;;;16.30;95.20;;;;;;5067837;28;1168103;-82
2021/09/06 06:19:51;;;;;;;10.35;4.97;;;16.30;95.20;;;;;;5096525;28;20031;-83
2021/09/06 06:22:17;;;;;;;8.27;5.18;;;16.30;95.20;;;;;;5097571;28;20023;-83
2021/09/06 06:24:43;;;;;;;8.40;5.18;;;16.40;95.20;;;;;;5088386;28;20039;-83
2021/09/06 06:27:08;;;;;;;8.60;5.00;;;16.40;95.20;;;;;;5089166;28;20112;-82
2021/09/06 06:29:34;;;;;;;10.15;5.00;;;16.40;95.30;;;;;;5081473;28;20127;-82
2021/09/06 06:32:00;;;;;;;7.55;5.03;;;16.50;95.20;;;;;;5093247;28;20469;-81
2021/09/06 06:34:26;;;;;;;8.23;5.07;;;16.50;95.10;;;;;;5083483;28;20027;-82
2021/09/06 06:36:52;;;;;;;10.45;5.28;;;16.50;95.10;;;;;;5086432;28;20044;-82
2021/09/06 06:39:18;;;;;;;7.00;4.90;;;16.50;95.10;;;;;;5082973;28;20530;-87
2021/09/06 06:41:46;;;;;;;7.55;5.30;;;16.60;95.10;;;;;;5095272;28;20446;-85
2021/09/06 06:44:12;;;;;;;8.00;5.57;;;16.60;95.10;;;;;;5092907;28;20028;-85
2021/09/06 06:46:38;;;;;;;8.10;4.75;;;16.60;95.00;;;;;;5076281;28;20028;-85
2021/09/06 06:49:03;;;;;;;7.72;5.45;;;16.70;95.00;;;;;;5087487;28;20119;-88
2021/09/06 06:51:29;;;;;;;9.55;4.93;;;16.80;94.80;;;;;;5094867;28;20382;-87
2021/09/06 06:53:55;;;;;;;6.20;4.30;;;16.70;94.80;;;;;;5111123;28;20034;-87
2021/09/06 06:56:21;;;;;;;10.65;4.90;;;16.70;94.80;;;;;;5082621;28;20023;-88
2021/09/06 06:58:46;;;;;;;8.27;4.22;;;16.80;94.80;;;;;;5086982;28;20039;-86
2021/09/06 07:01:12;;;;;;;8.63;4.80;;;16.80;94.90;;;;;;5089455;28;20096;-88
2021/09/06 07:03:37;;;;;;;7.80;4.93;;;16.90;94.80;;;;;;5080326;28;20024;-88
2021/09/06 07:06:03;;;;;;;6.65;4.45;;;17.00;94.80;;;;;;5095800;28;20032;-85
2021/09/06 07:08:29;;;;;;;7.07;4.90;;;17.00;94.60;;;;;;5107772;28;20032;-86
2021/09/06 07:10:54;;;;;;;6.90;4.00;;;17.00;94.30;;;;;;5104478;28;20027;-87
2021/09/06 07:13:20;;;;;;;6.63;4.53;;;17.10;94.10;;;;;;5084116;28;20028;-85
2021/09/06 07:15:45;;;;;;;9.65;4.85;;;17.10;93.80;;;;;;5097660;28;20055;-85
2021/09/06 07:18:11;;;;;;;7.10;4.80;;;17.10;93.80;;;;;;5082346;28;20039;-90
2021/09/06 07:20:37;;;;;;;6.40;4.43;;;17.20;93.90;;;;;;5088158;28;20043;-85
2021/09/06 07:23:02;;;;;;;6.72;4.35;;;17.20;94.00;;;;;;5093487;28;20032;-85
2021/09/06 07:25:28;;;;;;;8.00;4.25;;;17.30;93.90;;;;;;5075955;28;20027;-87
2021/09/06 07:27:54;;;;;;;8.20;4.90;;;17.40;93.70;;;;;;5110242;28;20027;-87
2021/09/06 07:30:20;;;;;;;7.68;4.47;;;17.40;93.70;;;;;;5081662;28;20455;-87
2021/09/06 07:32:46;;;;;;;6.47;4.60;;;17.40;93.60;;;;;;5086490;28;20109;-87
2021/09/06 07:35:13;;;;;;;5.65;4.25;;;17.40;93.70;;;;;;5079418;28;20034;-90
2021/09/06 07:37:39;;;;;;;9.70;4.55;;;17.50;93.70;;;;;;5092978;28;20114;-86
2021/09/06 07:40:10;;;;;;;7.85;3.97;;;17.50;93.70;;;;;;5097043;28;20099;-83
2021/09/06 07:42:36;;;;;;;5.68;4.30;;;17.60;93.50;;;;;;5088326;28;20029;-86
2021/09/06 07:45:02;;;;;;;5.65;3.95;;;17.70;93.40;;;;;;5075301;28;20024;-89
2021/09/06 07:47:28;;;;;;;10.60;4.80;;;17.70;93.30;;;;;;5109122;28;20057;-89
2021/09/06 07:49:55;;;;;;;6.88;4.30;;;17.70;93.40;;;;;;5079023;28;20041;-90
2021/09/06 07:52:20;;;;;;;8.10;5.00;;;17.80;93.40;;;;;;5090362;28;20059;-89
2021/09/06 07:54:46;;;;;;;7.15;4.10;;;17.80;93.20;;;;;;5084770;28;20060;-88
2021/09/06 07:57:12;;;;;;;9.20;4.43;;;17.80;93.20;;;;;;5083076;28;20028;-90
2021/09/06 07:59:38;;;;;;;12.20;4.32;;;17.80;93.40;;;;;;5092300;28;20027;-83
2021/09/06 08:02:03;;;;;;;6.68;4.13;;;17.80;93.50;;;;;;5078736;28;20019;-90
2021/09/06 08:04:29;;;;;;;7.72;4.55;;;17.90;93.50;;;;;;5084537;28;20024;-91
2021/09/06 08:06:54;;;;;;;8.85;5.07;;;18.00;93.40;;;;;;5085552;28;20036;-89
2021/09/06 08:09:20;;;;;;;8.95;5.40;;;18.00;93.30;;;;;;5113862;28;20468;-91
2021/09/06 08:11:48;;;;;;;7.47;4.53;;;18.00;93.40;;;;;;5078564;28;20024;-88
2021/09/06 08:14:14;;;;;;;8.70;3.95;;;18.10;93.60;;;;;;5091219;28;20023;-87
2021/09/06 08:16:40;;;;;;;8.23;4.07;;;18.10;93.40;;;;;;5084156;28;20027;-89
2021/09/06 08:19:05;;;;;;;6.85;4.30;;;18.10;93.30;;;;;;5082882;28;20052;-88
2021/09/06 08:21:31;;;;;;;7.20;4.22;;;18.20;93.00;;;;;;5091440;28;20074;-91
2021/09/06 08:23:58;;;;;;;9.73;4.53;;;18.20;92.80;;;;;;5096378;28;20099;-86
2021/09/06 08:26:24;;;;;;;7.78;4.03;;;18.20;92.90;;;;;;5089583;28;20024;-86
2021/09/06 08:28:50;;;;;;;6.85;4.35;;;18.30;92.70;;;;;;5102922;28;20096;-88
2021/09/06 08:31:16;;;;;;;7.18;4.20;;;18.40;92.60;;;;;;5082065;28;20472;-86
2021/09/06 08:33:42;;;;;;;5.70;4.10;;;18.40;92.80;;;;;;5092230;28;20478;-88
2021/09/06 08:36:09;;;;;;;6.15;4.32;;;18.40;92.70;;;;;;5078998;28;20479;-89
2021/09/06 08:38:36;;;;;;;7.88;3.80;;;18.50;92.70;;;;;;5113773;28;20072;-86
2021/09/06 08:41:02;;;;;;;7.45;3.80;;;18.60;92.70;;;;;;5083530;28;20461;-86
2021/09/06 08:43:29;;;;;;;6.85;4.18;;;18.70;92.50;;;;;;5090476;28;20072;-86
2021/09/06 08:45:56;;;;;;;6.75;4.25;;;18.70;92.50;;;;;;5092794;28;20124;-86
2021/09/06 08:48:21;;;;;;;6.50;4.13;;;18.80;92.10;;;;;;5080865;28;20027;-85
2021/09/06 08:50:48;;;;;;;5.90;3.58;;;18.80;92.00;;;;;;5103374;28;20495;-87
2021/09/06 08:53:14;;;;;;;8.35;3.72;;;18.90;92.00;;;;;;5093030;28;20086;-83
2021/09/06 08:55:40;;;;;;;7.28;4.07;;;18.90;92.10;;;;;;5075260;28;20035;-83
2021/09/06 08:58:06;;;;;;;9.38;4.28;;;19.00;91.90;;;;;;5091462;28;20027;-84
2021/09/06 09:00:31;;;;;;;6.75;3.92;;;19.00;91.70;;;;;;5082251;28;20365;-85
2021/09/06 09:02:59;;;;;;;6.05;3.85;;;19.00;91.60;;;;;;5094853;28;20469;-85
2021/09/06 09:05:25;;;;;;;5.20;3.80;;;19.10;91.40;;;;;;5080481;28;20119;-85
2021/09/06 09:07:57;;;;;;;6.00;3.97;;;19.20;91.30;;;;;;5092915;28;20113;-84
2021/09/06 09:10:30;;;;;;;5.97;3.83;;;19.30;91.40;;;;;;5109292;28;20020;-85
2021/09/06 09:13:07;;;;;;;6.53;3.55;;;19.40;91.30;;;;;;5078123;28;20020;-85
2021/09/06 09:15:34;;;;;;;6.32;4.10;;;19.40;90.80;;;;;;5112687;28;20034;-90
2021/09/06 09:18:01;;;;;;;5.57;3.65;;;19.50;90.80;;;;;;5081896;28;20116;-89
2021/09/06 09:20:40;;;;;;;5.85;3.67;;;19.60;90.50;;;;;;5092501;28;20028;-89
2021/09/06 09:23:07;;;;;;;6.40;3.83;;;19.70;90.30;;;;;;5090375;28;20027;-89
2021/09/06 09:25:33;;;;;;;7.60;3.78;;;19.70;90.60;;;;;;5083023;28;20031;-86
2021/09/06 09:27:59;;;;;;;6.32;3.90;;;19.70;90.20;;;;;;5094682;28;20030;-85
2021/09/06 09:30:29;;;;;;;6.25;4.20;;;19.70;90.10;;;;;;5096265;28;20068;-86
2021/09/06 09:33:22;;;;;;;5.30;3.60;;;19.80;90.10;;;;;;5105900;28;20479;-83
2021/09/06 09:35:49;;;;;;;7.82;3.50;;;19.90;90.00;;;;;;5094371;28;20085;-86
2021/09/06 09:38:14;;;;;;;5.35;3.67;;;20.00;89.90;;;;;;5093882;28;20493;-87
2021/09/06 09:40:45;;;;;;;6.75;3.92;;;20.10;90.00;;;;;;5086895;28;20027;-87
2021/09/06 09:43:11;;;;;;;4.60;3.65;;;20.10;90.00;;;;;;5103826;28;20020;-88
2021/09/06 09:45:37;;;;;;;7.35;4.25;;;20.10;89.60;;;;;;5094900;28;20042;-89
2021/09/06 09:48:04;;;;;;;7.10;3.80;;;20.10;89.60;;;;;;5081203;28;20020;-88
2021/09/06 09:50:33;;;;;;;9.00;3.85;;;20.10;89.40;;;;;;5091343;28;20039;-88
2021/09/06 09:52:59;;;;;;;6.68;3.90;;;20.20;89.40;;;;;;5106497;28;20054;-89
2021/09/06 09:55:26;;;;;;;5.95;3.58;;;20.30;89.20;;;;;;5083603;28;20115;-86
2021/09/06 09:57:52;;;;;;;5.30;3.47;;;20.40;88.30;;;;;;5094323;28;20051;-87
2021/09/06 10:00:19;;;;;;;5.82;3.70;;;20.40;88.10;;;;;;5083589;28;20030;-88
2021/09/06 10:02:52;;;;;;;5.97;3.50;;;20.50;88.30;;;;;;5098169;28;20062;-87
2021/09/06 10:05:27;;;;;;;6.68;3.58;;;20.50;88.50;;;;;;5084170;28;20024;-88
2021/09/06 10:07:52;;;;;;;7.15;4.00;;;20.50;87.30;;;;;;5111734;28;20043;-84
2021/09/06 10:10:23;;;;;;;8.88;3.97;;;20.60;86.40;;;;;;5077837;28;20021;-84
2021/09/06 10:13:01;;;;;;;5.33;3.97;;;20.70;86.20;;;;;;5087062;28;20464;-88
2021/09/06 10:15:27;;;;;;;8.38;3.78;;;20.70;86.70;;;;;;5085328;28;20095;-89
2021/09/06 10:17:53;;;;;;;4.78;3.50;;;20.90;86.10;;;;;;5093799;28;20480;-89
2021/09/06 10:20:21;;;;;;;5.43;4.05;;;20.90;85.90;;;;;;5079836;28;20414;-88
2021/09/06 10:23:01;;;;;;;8.20;4.07;;;21.00;85.40;;;;;;5087089;28;20024;-90
2021/09/06 10:25:32;;;;;;;7.68;3.60;;;21.10;85.00;;;;;;5077782;28;20024;-91
2021/09/06 10:28:03;;;;;;;6.72;3.53;;;21.20;84.10;;;;;;5093548;28;20119;-91
2021/09/06 10:30:47;;;;;;;9.18;4.07;;;21.20;84.00;;;;;;5084396;28;20028;-88
2021/09/06 10:33:36;;;;;;;6.28;3.80;;;21.30;82.10;;;;;;5115251;28;20024;-87
2021/09/06 10:36:17;;;;;;;4.78;3.28;;;21.40;80.80;;;;;;5110801;28;20035;-88
2021/09/06 10:38:45;;;;;;;6.65;3.75;;;21.50;79.80;;;;;;5088843;28;20473;-86
2021/09/06 10:41:17;;;;;;;5.03;3.05;;;21.60;80.10;;;;;;5089696;28;20062;-89
2021/09/06 10:43:46;;;;;;;7.55;3.75;;;21.70;79.10;;;;;;5094467;28;20035;-90
2021/09/06 10:46:13;;;;;;;6.38;3.90;;;21.70;78.90;;;;;;5081777;28;20028;-89
2021/09/06 10:48:39;;;;;;;5.05;3.38;;;21.80;80.20;;;;;;5106831;28;20095;-88
2021/09/06 10:51:05;;;;;;;5.05;3.50;;;21.80;80.40;;;;;;5088308;28;20047;-86
2021/09/06 10:53:31;;;;;;;5.43;3.72;;;21.70;80.00;;;;;;5097093;28;20034;-87
2021/09/06 10:55:58;;;;;;;8.85;3.95;;;21.70;78.00;;;;;;5097594;28;20036;-86
2021/09/06 10:58:26;;;;;;;11.68;3.83;;;21.90;76.20;;;;;;5115146;28;20020;-87
2021/09/06 11:00:57;;;;;;;5.15;3.38;;;22.00;75.70;;;;;;5086367;28;20050;-86
2021/09/06 11:03:34;;;;;;;4.80;3.20;;;22.00;78.00;;;;;;5090873;28;20389;-86
2021/09/06 11:06:01;;;;;;;5.55;3.25;;;22.00;77.80;;;;;;5101066;28;20054;-89
2021/09/06 11:08:30;;;;;;;5.45;3.40;;;22.10;76.10;;;;;;5114786;28;20480;-88
2021/09/06 11:10:57;;;;;;;5.50;3.45;;;22.30;77.00;;;;;;5085459;28;20024;-84
2021/09/06 11:13:33;;;;;;;9.27;3.75;;;22.30;77.00;;;;;;5091361;28;20044;-91
2021/09/06 11:15:58;;;;;;;4.22;3.30;;;22.50;75.30;;;;;;5076852;28;20028;-89
2021/09/06 11:18:30;;;;;;;7.40;3.80;;;22.70;75.10;;;;;;5090920;28;20499;-88
2021/09/06 11:20:55;;;;;;;5.68;3.88;;;22.80;73.50;;;;;;5076670;28;20035;-88
2021/09/06 11:23:30;;;;;;;5.18;3.40;;;22.80;72.80;;;;;;5091075;28;20028;-88
2021/09/06 11:25:56;;;;;;;5.95;3.58;;;22.90;73.60;;;;;;5079362;28;20111;-86
2021/09/06 11:28:22;;;;;;;5.80;3.60;;;22.80;72.00;;;;;;5108056;28;20047;-85
2021/09/06 11:30:47;;;;;;;8.50;4.05;;;22.90;72.90;;;;;;5085455;28;20031;-84
2021/09/06 11:33:14;;;;;;;8.07;3.80;;;22.90;72.20;;;;;;5083221;28;20028;-89
2021/09/06 11:35:42;;;;;;;7.47;3.63;;;23.00;71.70;;;;;;5079817;28;20036;-85
2021/09/06 11:38:08;;;;;;;6.50;3.55;;;23.10;71.70;;;;;;5091474;28;20039;-87
2021/09/06 11:40:35;;;;;;;6.25;3.60;;;23.10;73.20;;;;;;5076096;28;20067;-90
2021/09/06 11:43:03;;;;;;;5.32;3.40;;;23.20;71.30;;;;;;5086874;28;20085;-83
2021/09/06 11:45:29;;;;;;;5.40;3.67;;;23.30;71.10;;;;;;5081156;28;20028;-88
2021/09/06 11:48:05;;;;;;;8.25;3.70;;;23.50;68.20;;;;;;5110235;28;20457;-89
2021/09/06 11:50:34;;;;;;;4.53;3.20;;;23.50;64.50;;;;;;5083435;28;20028;-90
2021/09/06 11:53:02;;;;;;;7.25;3.65;;;23.70;65.40;;;;;;5089130;28;20038;-86
2021/09/06 11:55:29;;;;;;;6.28;3.40;;;23.70;66.80;;;;;;5098747;28;20077;-86
2021/09/06 11:58:08;;;;;;;6.10;3.60;;;23.80;67.20;;;;;;5095356;28;20031;-85
2021/09/06 12:00:38;;;;;;;6.53;3.53;;;23.80;67.50;;;;;;5106434;28;20107;-86
2021/09/06 12:03:04;;;;;;;4.60;3.08;;;23.80;66.90;;;;;;5086959;28;20035;-86
2021/09/06 12:05:38;;;;;;;4.53;3.17;;;24.00;62.70;;;;;;5079829;28;20042;-85
2021/09/06 12:08:10;;;;;;;5.70;3.13;;;24.10;63.60;;;;;;5095330;28;20057;-86
2021/09/06 12:10:36;;;;;;;5.78;3.45;;;24.10;63.10;;;;;;5088286;28;20034;-86
2021/09/06 12:13:04;;;;;;;5.07;3.70;;;24.30;64.90;;;;;;5104512;28;20019;-86
2021/09/06 12:15:33;;;;;;;4.50;3.25;;;24.30;63.00;;;;;;5080400;28;20033;-85
2021/09/06 12:18:14;;;;;;;5.35;3.50;;;24.40;62.70;;;;;;5109692;28;20089;-85
2021/09/06 12:20:41;;;;;;;4.93;3.45;;;24.60;63.90;;;;;;5101740;28;20031;-86
2021/09/06 12:23:13;;;;;;;4.93;3.58;;;24.80;62.20;;;;;;5082965;28;20036;-86
2021/09/06 12:25:41;;;;;;;6.47;3.78;;;25.00;63.20;;;;;;5092379;28;20027;-86
2021/09/06 12:28:14;;;;;;;7.25;3.58;;;25.20;62.50;;;;;;5091404;28;20123;-86
2021/09/06 12:30:41;;;;;;;5.68;3.42;;;25.40;60.50;;;;;;5101955;28;20055;-87
2021/09/06 12:33:08;;;;;;;5.72;3.70;;;25.50;59.30;;;;;;5082863;28;20036;-82
2021/09/06 12:35:35;;;;;;;7.32;3.95;;;25.60;57.70;;;;;;5078427;28;20523;-84
2021/09/06 12:38:03;;;;;;;4.90;3.22;;;25.70;57.80;;;;;;5094388;28;20023;-84
2021/09/06 12:40:29;;;;;;;6.78;3.60;;;25.90;58.90;;;;;;5106396;28;20025;-86
2021/09/06 12:42:54;;;;;;;5.80;3.50;;;26.10;56.90;;;;;;5084179;28;20583;-86